Time;durP1;ratioP1;P1;durP2;ratioP2;P2;SDS_P1;SDS_P2;PMS_P1;PMS_P2;Temp;Humidity;BMP_temperature;BMP_pressure;BME280_temperature;BME280_humidity;BME280_pressure;Samples;Min_cycle;Max_cycle;Signal;HPM_P1;HPM_P2
2023/12/11 00:00:57;;;;;;;31.83;6.27;;;;;;;;;;6307581;22;20579;-80
2023/12/11 00:03:24;;;;;;;37.50;6.07;;;;;;;;;;6307677;22;20193;-80
2023/12/11 00:05:51;;;;;;;30.87;5.57;;;;;;;;;;6307537;22;20644;-79
2023/12/11 00:08:19;;;;;;;36.17;5.83;;;;;;;;;;6307154;22;20215;-80
2023/12/11 00:10:46;;;;;;;33.80;6.07;;;;;;;;;;6307725;22;20226;-80
2023/12/11 00:13:14;;;;;;;34.60;6.30;;;;;;;;;;6307695;22;20174;-79
2023/12/11 00:15:42;;;;;;;33.70;5.40;;;;;;;;;;6306658;22;20243;-80
2023/12/11 00:18:09;;;;;;;38.40;5.83;;;;;;;;;;6307615;22;20189;-79
2023/12/11 00:20:36;;;;;;;30.20;5.37;;;;;;;;;;6307614;22;20169;-80
2023/12/11 00:23:03;;;;;;;35.30;5.40;;;;;;;;;;6307698;22;20192;-80
2023/12/11 00:25:31;;;;;;;37.07;5.63;;;;;;;;;;6307457;22;20166;-79
2023/12/11 00:27:58;;;;;;;40.97;5.87;;;;;;;;;;6306968;22;20170;-79
2023/12/11 00:30:27;;;;;;;27.30;5.50;;;;;;;;;;6307342;22;20219;-79
2023/12/11 00:32:54;;;;;;;42.27;6.20;;;;;;;;;;6307585;22;20249;-79
2023/12/11 00:35:21;;;;;;;38.13;5.60;;;;;;;;;;6307902;22;20243;-79
2023/12/11 00:37:49;;;;;;;40.53;5.97;;;;;;;;;;6306992;22;20635;-79
2023/12/11 00:40:16;;;;;;;35.53;5.77;;;;;;;;;;6307471;22;20557;-80
2023/12/11 00:42:43;;;;;;;36.53;5.20;;;;;;;;;;6309081;22;20176;-79
2023/12/11 00:45:13;;;;;;;34.50;5.13;;;;;;;;;;6308272;22;20697;-79
2023/12/11 00:47:42;;;;;;;39.97;4.80;;;;;;;;;;6308089;22;20711;-79
2023/12/11 00:50:10;;;;;;;30.37;5.13;;;;;;;;;;6305998;22;20247;-80
2023/12/11 00:52:37;;;;;;;36.07;5.43;;;;;;;;;;6308845;22;20166;-79
2023/12/11 00:55:04;;;;;;;39.17;5.13;;;;;;;;;;6307960;22;20519;-80
2023/12/11 00:57:32;;;;;;;39.83;5.67;;;;;;;;;;6307819;22;20543;-79
2023/12/11 00:59:59;;;;;;;29.43;5.50;;;;;;;;;;6307962;22;20676;-79
2023/12/11 01:02:26;;;;;;;33.03;6.00;;;;;;;;;;6307758;22;20170;-80
2023/12/11 01:04:56;;;;;;;41.47;5.73;;;;;;;;;;6307976;22;20224;-80
2023/12/11 01:07:24;;;;;;;40.23;6.03;;;;;;;;;;6306824;22;20256;-80
2023/12/11 01:09:51;;;;;;;39.47;6.17;;;;;;;;;;6306558;22;20166;-80
2023/12/11 01:12:19;;;;;;;34.17;5.07;;;;;;;;;;6306381;22;20170;-79
2023/12/11 01:14:46;;;;;;;41.73;5.67;;;;;;;;;;6306631;22;20569;-79
2023/12/11 01:17:13;;;;;;;28.33;5.40;;;;;;;;;;6306670;22;20174;-79
2023/12/11 01:19:41;;;;;;;35.73;5.13;;;;;;;;;;6306207;22;20220;-79
2023/12/11 01:22:09;;;;;;;34.67;4.80;;;;;;;;;;6306776;22;20189;-79
2023/12/11 01:24:36;;;;;;;32.70;4.73;;;;;;;;;;6306298;22;20180;-79
2023/12/11 01:27:04;;;;;;;34.73;5.70;;;;;;;;;;6306361;22;20541;-80
2023/12/11 01:29:31;;;;;;;30.77;4.40;;;;;;;;;;6306219;22;20240;-79
2023/12/11 01:31:58;;;;;;;35.70;5.70;;;;;;;;;;6307272;22;20166;-79
2023/12/11 01:34:26;;;;;;;41.03;5.60;;;;;;;;;;6306457;22;20656;-80
2023/12/11 01:36:53;;;;;;;31.90;5.27;;;;;;;;;;6306303;22;20189;-80
2023/12/11 01:39:22;;;;;;;34.70;5.23;;;;;;;;;;6306826;22;20165;-79
2023/12/11 01:41:49;;;;;;;41.33;6.00;;;;;;;;;;6306932;22;20425;-80
2023/12/11 01:44:16;;;;;;;38.30;5.50;;;;;;;;;;6306921;22;20219;-79
2023/12/11 01:46:43;;;;;;;33.83;5.30;;;;;;;;;;6306614;22;20170;-79
2023/12/11 01:49:11;;;;;;;37.00;5.50;;;;;;;;;;6306404;22;20215;-80
2023/12/11 01:51:38;;;;;;;40.87;5.73;;;;;;;;;;6305971;22;20224;-80
2023/12/11 01:54:05;;;;;;;31.90;5.13;;;;;;;;;;6306350;22;20166;-80
2023/12/11 01:56:35;;;;;;;42.20;6.23;;;;;;;;;;6306025;22;20174;-79
2023/12/11 01:59:02;;;;;;;44.27;5.90;;;;;;;;;;6306714;22;20185;-80
2023/12/11 02:01:30;;;;;;;36.53;5.53;;;;;;;;;;6306275;22;20169;-80
2023/12/11 02:03:57;;;;;;;36.97;5.80;;;;;;;;;;6305380;22;20201;-79
2023/12/11 02:06:25;;;;;;;32.40;4.87;;;;;;;;;;6306342;22;20170;-80
2023/12/11 02:08:52;;;;;;;39.40;5.73;;;;;;;;;;6306296;22;20544;-79
2023/12/11 02:11:20;;;;;;;44.70;5.60;;;;;;;;;;6306171;22;20201;-80
2023/12/11 02:13:48;;;;;;;39.63;5.33;;;;;;;;;;6306236;22;20249;-80
2023/12/11 02:16:16;;;;;;;41.57;5.67;;;;;;;;;;6306014;22;20197;-79
2023/12/11 02:18:44;;;;;;;34.67;5.60;;;;;;;;;;6305004;22;20231;-80
2023/12/11 02:21:11;;;;;;;36.73;6.00;;;;;;;;;;6306133;22;20627;-80
2023/12/11 02:23:42;;;;;;;38.93;5.30;;;;;;;;;;6305630;22;20174;-80
2023/12/11 02:26:13;;;;;;;39.03;5.77;;;;;;;;;;6306147;22;20166;-79
2023/12/11 02:28:40;;;;;;;44.40;5.83;;;;;;;;;;6306125;22;20636;-80
2023/12/11 02:31:07;;;;;;;35.27;5.60;;;;;;;;;;6306517;22;20174;-80
2023/12/11 02:33:35;;;;;;;39.43;5.87;;;;;;;;;;6305955;22;20228;-80
2023/12/11 02:36:02;;;;;;;38.00;5.73;;;;;;;;;;6305800;22;20251;-79
2023/12/11 02:38:29;;;;;;;43.57;5.33;;;;;;;;;;6306255;22;20166;-79
2023/12/11 02:40:56;;;;;;;38.63;5.47;;;;;;;;;;6305951;22;20513;-80
2023/12/11 02:43:25;;;;;;;36.73;5.07;;;;;;;;;;6306575;22;20197;-80
2023/12/11 02:45:52;;;;;;;35.37;5.03;;;;;;;;;;6305908;22;20169;-81
2023/12/11 02:48:20;;;;;;;33.70;5.07;;;;;;;;;;6306321;22;20170;-79
2023/12/11 02:50:48;;;;;;;38.37;5.97;;;;;;;;;;6305800;22;20219;-79
2023/12/11 02:53:15;;;;;;;40.40;5.67;;;;;;;;;;6305803;22;20199;-80
2023/12/11 02:55:42;;;;;;;40.07;5.77;;;;;;;;;;6306619;22;20185;-79
2023/12/11 02:58:09;;;;;;;34.57;5.53;;;;;;;;;;6306353;22;20215;-80
2023/12/11 03:00:38;;;;;;;34.93;5.97;;;;;;;;;;6304832;22;20198;-80
2023/12/11 03:03:05;;;;;;;31.30;5.47;;;;;;;;;;6305844;22;20169;-79
2023/12/11 03:05:33;;;;;;;36.10;5.87;;;;;;;;;;6305294;22;20170;-80
2023/12/11 03:08:00;;;;;;;40.83;5.83;;;;;;;;;;6305678;22;20231;-79
2023/12/11 03:10:27;;;;;;;43.77;6.27;;;;;;;;;;6305519;22;20166;-80
2023/12/11 03:12:55;;;;;;;39.23;4.80;;;;;;;;;;6305395;22;20220;-78
2023/12/11 03:15:22;;;;;;;37.90;5.27;;;;;;;;;;6305134;22;20263;-79
2023/12/11 03:17:51;;;;;;;37.53;5.50;;;;;;;;;;6304976;22;20162;-79
2023/12/11 03:20:18;;;;;;;46.57;5.57;;;;;;;;;;6305303;22;20174;-79
2023/12/11 03:22:45;;;;;;;32.87;5.07;;;;;;;;;;6305639;22;20569;-80
2023/12/11 03:25:12;;;;;;;40.47;5.53;;;;;;;;;;6305424;22;20234;-80
2023/12/11 03:27:40;;;;;;;33.43;5.10;;;;;;;;;;6305872;22;20174;-79
2023/12/11 03:30:07;;;;;;;39.73;5.87;;;;;;;;;;6304313;22;20198;-80
2023/12/11 03:32:34;;;;;;;31.90;5.23;;;;;;;;;;6305734;22;20200;-80
2023/12/11 03:35:02;;;;;;;31.00;5.20;;;;;;;;;;6305004;22;20193;-80
2023/12/11 03:37:30;;;;;;;44.03;5.90;;;;;;;;;;6305578;22;20169;-80
2023/12/11 03:39:57;;;;;;;39.63;6.00;;;;;;;;;;6305315;22;20170;-80
2023/12/11 03:42:24;;;;;;;40.10;6.27;;;;;;;;;;6305495;22;20169;-80
2023/12/11 03:44:51;;;;;;;49.17;5.97;;;;;;;;;;6305024;22;20628;-80
2023/12/11 03:47:19;;;;;;;35.57;6.17;;;;;;;;;;6305375;22;20170;-80
2023/12/11 03:49:48;;;;;;;49.27;6.00;;;;;;;;;;6305070;22;20170;-79
2023/12/11 03:52:17;;;;;;;38.80;5.57;;;;;;;;;;6305326;22;20166;-80
2023/12/11 03:54:44;;;;;;;37.60;4.93;;;;;;;;;;6305800;22;20223;-80
2023/12/11 03:57:11;;;;;;;42.63;5.37;;;;;;;;;;6305528;22;20700;-79
2023/12/11 03:59:38;;;;;;;38.00;4.77;;;;;;;;;;6304891;22;20247;-79
2023/12/11 04:02:06;;;;;;;33.80;4.70;;;;;;;;;;6305182;22;20620;-80
2023/12/11 04:04:33;;;;;;;39.83;5.07;;;;;;;;;;6304659;22;20223;-80
2023/12/11 04:07:00;;;;;;;44.40;4.97;;;;;;;;;;6305169;22;20170;-80
2023/12/11 04:09:29;;;;;;;37.90;4.60;;;;;;;;;;6305132;22;20552;-80
2023/12/11 04:11:56;;;;;;;34.00;5.03;;;;;;;;;;6305208;22;20223;-79
2023/12/11 04:14:23;;;;;;;38.00;5.17;;;;;;;;;;6304922;22;20179;-80
2023/12/11 04:16:51;;;;;;;35.97;5.10;;;;;;;;;;6306171;22;20204;-79
2023/12/11 04:19:18;;;;;;;39.17;4.93;;;;;;;;;;6304821;22;20549;-79
2023/12/11 04:21:45;;;;;;;38.57;5.20;;;;;;;;;;6305440;22;20170;-79
2023/12/11 04:24:12;;;;;;;39.20;5.60;;;;;;;;;;6304853;22;20632;-79
2023/12/11 04:26:41;;;;;;;35.60;5.00;;;;;;;;;;6305266;22;20231;-79
2023/12/11 04:29:08;;;;;;;30.90;4.97;;;;;;;;;;6304969;22;20177;-79
2023/12/11 04:31:35;;;;;;;34.40;5.20;;;;;;;;;;6305074;22;20170;-80
2023/12/11 04:34:03;;;;;;;37.33;5.03;;;;;;;;;;6305202;22;20239;-79
2023/12/11 04:36:30;;;;;;;39.97;4.83;;;;;;;;;;6305029;22;20197;-79
2023/12/11 04:38:57;;;;;;;44.10;5.40;;;;;;;;;;6305136;22;20231;-80
2023/12/11 04:41:24;;;;;;;32.63;5.10;;;;;;;;;;6304732;22;20235;-79
2023/12/11 04:43:53;;;;;;;29.47;5.17;;;;;;;;;;6306641;22;20177;-79
2023/12/11 04:46:20;;;;;;;32.20;4.77;;;;;;;;;;6307212;22;20220;-79
2023/12/11 04:48:47;;;;;;;31.57;4.63;;;;;;;;;;6306665;22;20162;-80
2023/12/11 04:51:14;;;;;;;32.00;4.80;;;;;;;;;;6306423;22;20211;-80
2023/12/11 04:53:42;;;;;;;41.07;4.53;;;;;;;;;;6306681;22;20561;-79
2023/12/11 04:56:09;;;;;;;37.67;5.27;;;;;;;;;;6306648;22;20198;-79
2023/12/11 04:58:37;;;;;;;35.97;5.07;;;;;;;;;;6306093;22;20488;-79
2023/12/11 05:01:06;;;;;;;27.03;3.93;;;;;;;;;;6306388;22;20255;-80
2023/12/11 05:03:33;;;;;;;35.90;4.50;;;;;;;;;;6307150;22;20170;-80
2023/12/11 05:06:01;;;;;;;32.80;4.40;;;;;;;;;;6306607;22;20224;-79
2023/12/11 05:08:28;;;;;;;33.33;4.40;;;;;;;;;;6306973;22;20248;-80
2023/12/11 05:10:55;;;;;;;33.07;4.07;;;;;;;;;;6306743;22;20239;-81
2023/12/11 05:13:23;;;;;;;24.67;3.90;;;;;;;;;;6307128;22;20177;-79
2023/12/11 05:15:50;;;;;;;34.93;4.70;;;;;;;;;;6306634;22;20205;-79
2023/12/11 05:18:19;;;;;;;32.50;4.70;;;;;;;;;;6306568;22;20190;-80
2023/12/11 05:20:46;;;;;;;27.07;4.13;;;;;;;;;;6306368;22;20203;-80
2023/12/11 05:23:13;;;;;;;26.50;4.17;;;;;;;;;;6307076;22;20224;-79
2023/12/11 05:25:41;;;;;;;25.43;4.47;;;;;;;;;;6306358;22;20235;-79
2023/12/11 05:28:08;;;;;;;27.33;4.67;;;;;;;;;;6306269;22;20231;-79
2023/12/11 05:30:35;;;;;;;27.17;4.33;;;;;;;;;;6306270;22;20516;-79
2023/12/11 05:33:02;;;;;;;29.27;5.27;;;;;;;;;;6306384;22;20196;-79
2023/12/11 05:35:31;;;;;;;28.73;5.07;;;;;;;;;;6306572;22;20254;-79
2023/12/11 05:37:58;;;;;;;37.07;6.23;;;;;;;;;;6306080;22;20215;-79
2023/12/11 05:40:25;;;;;;;27.47;5.10;;;;;;;;;;6306277;22;20193;-79
2023/12/11 05:42:53;;;;;;;26.70;4.40;;;;;;;;;;6306148;22;20632;-80
2023/12/11 05:45:20;;;;;;;30.00;4.30;;;;;;;;;;6306499;22;20170;-80
2023/12/11 05:47:48;;;;;;;31.13;4.53;;;;;;;;;;6305600;22;20211;-79
2023/12/11 05:50:15;;;;;;;22.13;3.50;;;;;;;;;;6306370;22;20219;-79
2023/12/11 05:52:44;;;;;;;22.60;3.50;;;;;;;;;;6306286;22;20215;-79
2023/12/11 05:55:11;;;;;;;25.93;4.23;;;;;;;;;;6305890;22;20552;-79
2023/12/11 05:57:38;;;;;;;27.70;3.80;;;;;;;;;;6304419;22;20184;-79
2023/12/11 06:00:06;;;;;;;29.17;3.87;;;;;;;;;;6305771;22;20205;-79
2023/12/11 06:02:34;;;;;;;29.17;4.20;;;;;;;;;;6306014;22;20639;-80
2023/12/11 06:05:01;;;;;;;22.90;3.83;;;;;;;;;;6306245;22;20170;-80
2023/12/11 06:07:28;;;;;;;24.93;4.10;;;;;;;;;;6306348;22;20196;-80
2023/12/11 06:09:57;;;;;;;25.03;4.83;;;;;;;;;;6305739;22;20166;-79
2023/12/11 06:12:24;;;;;;;31.87;4.63;;;;;;;;;;6305765;22;20756;-79
2023/12/11 06:14:51;;;;;;;31.63;5.30;;;;;;;;;;6305679;22;20711;-79
2023/12/11 06:17:19;;;;;;;31.43;5.10;;;;;;;;;;6305662;22;20619;-79
2023/12/11 06:19:46;;;;;;;26.63;4.70;;;;;;;;;;6306313;22;20245;-79
2023/12/11 06:22:13;;;;;;;26.17;6.03;;;;;;;;;;6306464;22;20223;-79
2023/12/11 06:24:41;;;;;;;31.90;5.43;;;;;;;;;;6305997;22;20227;-79
2023/12/11 06:27:10;;;;;;;24.03;4.87;;;;;;;;;;6305956;22;20178;-79
2023/12/11 06:29:37;;;;;;;33.67;5.23;;;;;;;;;;6306531;22;20166;-78
2023/12/11 06:32:05;;;;;;;27.63;4.00;;;;;;;;;;6306119;22;20582;-79
2023/12/11 06:34:33;;;;;;;28.93;4.17;;;;;;;;;;6305737;22;20170;-79
2023/12/11 06:37:00;;;;;;;29.23;3.80;;;;;;;;;;6305668;22;20542;-79
2023/12/11 06:39:28;;;;;;;25.17;5.03;;;;;;;;;;6305381;22;20636;-79
2023/12/11 06:41:55;;;;;;;32.00;6.23;;;;;;;;;;6305059;22;20220;-80
2023/12/11 06:44:23;;;;;;;22.67;5.03;;;;;;;;;;6304910;22;20169;-79
2023/12/11 06:46:52;;;;;;;31.80;5.57;;;;;;;;;;6305877;22;20169;-78
2023/12/11 06:49:19;;;;;;;31.93;4.77;;;;;;;;;;6304258;22;20718;-79
2023/12/11 06:51:47;;;;;;;27.40;5.30;;;;;;;;;;6305828;22;20170;-78
2023/12/11 06:54:14;;;;;;;30.97;5.50;;;;;;;;;;6305181;22;20557;-79
2023/12/11 06:56:41;;;;;;;31.63;4.90;;;;;;;;;;6305682;22;20201;-79
2023/12/11 06:59:09;;;;;;;31.13;5.17;;;;;;;;;;6305527;22;20176;-79
2023/12/11 07:01:37;;;;;;;30.23;4.50;;;;;;;;;;6305308;22;20546;-79
2023/12/11 07:04:05;;;;;;;25.03;4.47;;;;;;;;;;6304956;22;20169;-79
2023/12/11 07:06:32;;;;;;;31.00;4.93;;;;;;;;;;6304670;22;20173;-78
2023/12/11 07:08:59;;;;;;;29.53;5.10;;;;;;;;;;6304955;22;20170;-79
2023/12/11 07:11:27;;;;;;;28.20;5.37;;;;;;;;;;6305632;22;20197;-79
2023/12/11 07:13:55;;;;;;;29.97;5.40;;;;;;;;;;6305662;22;20245;-79
2023/12/11 07:16:23;;;;;;;25.73;4.13;;;;;;;;;;6305003;22;20219;-79
2023/12/11 07:18:52;;;;;;;36.17;4.77;;;;;;;;;;6306087;22;20173;-79
2023/12/11 07:21:19;;;;;;;24.67;4.33;;;;;;;;;;6305007;22;20166;-79
2023/12/11 07:23:50;;;;;;;25.90;5.10;;;;;;;;;;6305258;22;20165;-79
2023/12/11 07:26:17;;;;;;;27.93;4.60;;;;;;;;;;6305660;22;20174;-79
2023/12/11 07:28:43;;;;;;;27.77;4.83;;;;;;;;;;6305750;22;20182;-80
2023/12/11 07:31:10;;;;;;;25.43;5.20;;;;;;;;;;6304284;22;20173;-79
2023/12/11 07:33:38;;;;;;;24.27;4.30;;;;;;;;;;6306082;22;20177;-79
2023/12/11 07:36:07;;;;;;;23.77;3.93;;;;;;;;;;6305227;22;20247;-79
2023/12/11 07:38:34;;;;;;;27.93;4.03;;;;;;;;;;6305340;22;20177;-79
2023/12/11 07:41:01;;;;;;;21.00;4.10;;;;;;;;;;6305539;22;20170;-79
2023/12/11 07:43:29;;;;;;;28.27;4.30;;;;;;;;;;6304451;22;20195;-79
2023/12/11 07:45:56;;;;;;;24.80;3.87;;;;;;;;;;6305335;22;20176;-79
2023/12/11 07:48:23;;;;;;;25.57;5.20;;;;;;;;;;6305776;22;20216;-78
2023/12/11 07:50:50;;;;;;;23.37;4.67;;;;;;;;;;6304889;22;20262;-80
2023/12/11 07:53:19;;;;;;;24.63;3.87;;;;;;;;;;6303243;22;20170;-79
2023/12/11 07:55:46;;;;;;;25.30;4.10;;;;;;;;;;6305250;22;20223;-79
2023/12/11 07:58:14;;;;;;;28.13;5.03;;;;;;;;;;6304728;22;20213;-79
2023/12/11 08:00:41;;;;;;;26.30;4.83;;;;;;;;;;6304519;22;20197;-79
2023/12/11 08:03:08;;;;;;;25.57;4.10;;;;;;;;;;6305833;22;20174;-79
2023/12/11 08:05:35;;;;;;;26.80;4.60;;;;;;;;;;6305743;22;20516;-78
2023/12/11 08:08:03;;;;;;;30.40;5.13;;;;;;;;;;6305938;22;20211;-79
2023/12/11 08:10:31;;;;;;;26.80;5.00;;;;;;;;;;6305595;22;20197;-78
2023/12/11 08:12:58;;;;;;;22.27;4.23;;;;;;;;;;6305369;22;20690;-79
2023/12/11 08:15:26;;;;;;;24.63;3.73;;;;;;;;;;6306316;22;20166;-78
2023/12/11 08:17:53;;;;;;;28.43;4.60;;;;;;;;;;6307964;22;20201;-79
2023/12/11 08:20:20;;;;;;;28.57;5.53;;;;;;;;;;6307519;22;20194;-78
2023/12/11 08:22:47;;;;;;;24.37;5.10;;;;;;;;;;6308224;22;20170;-79
2023/12/11 08:25:15;;;;;;;28.60;4.43;;;;;;;;;;6307862;22;20174;-79
2023/12/11 08:27:43;;;;;;;25.63;4.40;;;;;;;;;;6307910;22;20170;-79
2023/12/11 08:30:11;;;;;;;31.43;4.87;;;;;;;;;;6307725;22;20169;-79
2023/12/11 08:32:39;;;;;;;29.30;4.43;;;;;;;;;;6307270;22;20644;-79
2023/12/11 08:35:07;;;;;;;22.27;4.00;;;;;;;;;;6306830;22;20256;-79
2023/12/11 08:37:34;;;;;;;24.63;4.13;;;;;;;;;;6307321;22;20527;-78
2023/12/11 08:40:03;;;;;;;24.47;4.73;;;;;;;;;;6306988;22;20202;-80
2023/12/11 08:42:30;;;;;;;20.97;4.33;;;;;;;;;;6307904;22;20165;-79
2023/12/11 08:44:59;;;;;;;25.13;5.03;;;;;;;;;;6307605;22;20170;-79
2023/12/11 08:47:26;;;;;;;27.40;4.97;;;;;;;;;;6307439;22;20231;-80
2023/12/11 08:49:54;;;;;;;32.53;5.90;;;;;;;;;;6307196;22;20608;-79
2023/12/11 08:52:21;;;;;;;25.53;4.57;;;;;;;;;;6307409;22;20169;-79
2023/12/11 08:54:50;;;;;;;24.30;5.47;;;;;;;;;;6307809;22;20218;-79
2023/12/11 08:57:18;;;;;;;27.47;5.43;;;;;;;;;;6308108;22;20186;-78
2023/12/11 08:59:45;;;;;;;28.60;5.37;;;;;;;;;;6307419;22;20201;-78
2023/12/11 09:02:14;;;;;;;24.07;5.37;;;;;;;;;;6307341;22;20875;-79
2023/12/11 09:04:41;;;;;;;27.20;5.27;;;;;;;;;;6307013;22;20632;-79
2023/12/11 09:07:09;;;;;;;20.70;5.20;;;;;;;;;;6307536;22;20170;-79
2023/12/11 09:09:37;;;;;;;27.03;6.20;;;;;;;;;;6307561;22;20219;-79
2023/12/11 09:12:05;;;;;;;25.97;5.83;;;;;;;;;;6307832;22;20200;-78
2023/12/11 09:14:32;;;;;;;22.00;5.70;;;;;;;;;;6307671;22;20162;-79
2023/12/11 09:17:00;;;;;;;20.13;6.33;;;;;;;;;;6307253;22;20280;-79
2023/12/11 09:19:28;;;;;;;22.77;6.00;;;;;;;;;;6306780;22;20612;-78
2023/12/11 09:21:56;;;;;;;23.80;6.17;;;;;;;;;;6306877;22;20215;-80
2023/12/11 09:24:23;;;;;;;19.30;6.23;;;;;;;;;;6307718;22;20166;-78
2023/12/11 09:26:50;;;;;;;21.77;6.40;;;;;;;;;;6307287;22;20223;-80
2023/12/11 09:29:17;;;;;;;24.87;6.57;;;;;;;;;;6307067;22;20283;-78
2023/12/11 09:31:45;;;;;;;22.10;6.20;;;;;;;;;;6307204;22;20628;-79
2023/12/11 09:34:12;;;;;;;24.03;6.50;;;;;;;;;;6306725;22;20162;-78
2023/12/11 09:36:40;;;;;;;23.87;6.90;;;;;;;;;;6306585;22;20616;-79
2023/12/11 09:39:08;;;;;;;24.93;6.77;;;;;;;;;;6307555;22;20515;-79
2023/12/11 09:41:36;;;;;;;25.60;6.37;;;;;;;;;;6307480;22;20196;-79
2023/12/11 09:44:03;;;;;;;23.73;7.37;;;;;;;;;;6306822;22;20174;-80
2023/12/11 09:46:33;;;;;;;19.30;7.70;;;;;;;;;;6306782;22;20166;-79
2023/12/11 09:49:00;;;;;;;22.07;8.23;;;;;;;;;;6307018;22;20253;-79
2023/12/11 09:51:27;;;;;;;18.10;7.50;;;;;;;;;;6307540;22;20181;-79
2023/12/11 09:53:57;;;;;;;20.63;7.40;;;;;;;;;;6306849;22;20223;-79
2023/12/11 09:56:24;;;;;;;21.73;8.17;;;;;;;;;;6307219;22;20174;-79
2023/12/11 09:58:52;;;;;;;20.27;7.33;;;;;;;;;;6307444;22;20217;-79
2023/12/11 10:01:19;;;;;;;19.87;7.50;;;;;;;;;;6306133;22;20251;-79
2023/12/11 10:03:47;;;;;;;22.47;7.40;;;;;;;;;;6305242;22;20563;-79
2023/12/11 10:06:14;;;;;;;15.80;6.17;;;;;;;;;;6307331;22;20162;-79
2023/12/11 10:08:42;;;;;;;16.33;6.00;;;;;;;;;;6306580;22;20174;-79
2023/12/11 10:11:12;;;;;;;17.63;5.97;;;;;;;;;;6306900;22;20173;-79
2023/12/11 10:13:39;;;;;;;18.57;4.83;;;;;;;;;;6307106;22;20169;-80
2023/12/11 10:16:07;;;;;;;16.40;4.67;;;;;;;;;;6306556;22;20162;-79
2023/12/11 10:18:34;;;;;;;17.57;4.20;;;;;;;;;;6306409;22;20564;-80
2023/12/11 10:21:02;;;;;;;19.93;4.50;;;;;;;;;;6306835;22;20166;-80
2023/12/11 10:23:29;;;;;;;16.80;5.53;;;;;;;;;;6306345;22;20223;-79
2023/12/11 10:26:07;;;;;;;14.37;4.07;;;;;;;;;;6307318;22;20215;-79
2023/12/11 10:28:36;;;;;;;15.57;3.97;;;;;;;;;;6306621;22;20257;-79
2023/12/11 10:31:04;;;;;;;13.40;4.30;;;;;;;;;;6306425;22;20539;-80
2023/12/11 10:33:32;;;;;;;18.73;5.90;;;;;;;;;;6307064;22;20177;-81
2023/12/11 10:36:09;;;;;;;19.43;7.53;;;;;;;;;;6306464;22;20541;-80
2023/12/11 10:38:36;;;;;;;17.37;7.37;;;;;;;;;;6306574;22;20208;-80
2023/12/11 10:41:03;;;;;;;19.47;7.60;;;;;;;;;;6306177;22;20170;-80
2023/12/11 10:43:39;;;;;;;22.53;7.90;;;;;;;;;;6306604;22;20170;-79
2023/12/11 10:46:08;;;;;;;15.50;8.10;;;;;;;;;;6305984;22;20569;-79
2023/12/11 10:48:36;;;;;;;23.07;9.03;;;;;;;;;;6306470;22;20166;-79
2023/12/11 10:51:04;;;;;;;23.00;8.17;;;;;;;;;;6305907;22;20170;-79
2023/12/11 10:53:31;;;;;;;16.57;7.43;;;;;;;;;;6306079;22;20169;-78
2023/12/11 10:56:00;;;;;;;15.23;6.77;;;;;;;;;;6306749;22;20244;-79
2023/12/11 10:58:28;;;;;;;19.73;6.73;;;;;;;;;;6306408;22;20197;-79
2023/12/11 11:00:56;;;;;;;15.30;5.93;;;;;;;;;;6305665;22;20251;-79
2023/12/11 11:03:24;;;;;;;16.67;5.17;;;;;;;;;;6306167;22;20166;-78
2023/12/11 11:05:52;;;;;;;15.57;3.97;;;;;;;;;;6306266;22;20205;-80
2023/12/11 11:08:22;;;;;;;15.10;3.97;;;;;;;;;;6306186;22;20649;-78
2023/12/11 11:10:53;;;;;;;17.43;4.53;;;;;;;;;;6306157;22;20671;-80
2023/12/11 11:13:21;;;;;;;12.93;4.53;;;;;;;;;;6306403;22;20177;-79
2023/12/11 11:15:53;;;;;;;13.07;3.70;;;;;;;;;;6305958;22;20170;-78
2023/12/11 11:18:20;;;;;;;19.17;3.77;;;;;;;;;;6306080;22;20561;-79
2023/12/11 11:21:10;;;;;;;13.20;3.80;;;;;;;;;;6306309;22;20197;-78
2023/12/11 11:23:42;;;;;;;14.13;3.47;;;;;;;;;;6306364;22;20244;-78
2023/12/11 11:26:24;;;;;;;14.57;3.20;;;;;;;;;;6306243;22;20185;-79
2023/12/11 11:28:51;;;;;;;11.37;3.70;;;;;;;;;;6305949;22;20235;-78
2023/12/11 11:31:18;;;;;;;10.83;4.27;;;;;;;;;;6306164;22;20213;-79
2023/12/11 11:33:46;;;;;;;14.43;3.97;;;;;;;;;;6306515;22;20205;-79
2023/12/11 11:36:18;;;;;;;10.47;3.90;;;;;;;;;;6305705;22;20631;-79
2023/12/11 11:38:55;;;;;;;13.30;3.93;;;;;;;;;;6305991;22;20235;-80
2023/12/11 11:41:26;;;;;;;11.07;3.50;;;;;;;;;;6306082;22;20256;-79
2023/12/11 11:43:57;;;;;;;12.97;3.30;;;;;;;;;;6306053;22;20162;-79
2023/12/11 11:46:25;;;;;;;9.43;3.40;;;;;;;;;;6305437;22;20555;-79
2023/12/11 11:48:52;;;;;;;11.03;4.13;;;;;;;;;;6305419;22;20205;-79
2023/12/11 11:51:21;;;;;;;11.13;3.73;;;;;;;;;;6305719;22;20170;-81
2023/12/11 11:53:51;;;;;;;9.87;3.30;;;;;;;;;;6306198;22;20165;-80
2023/12/11 11:56:18;;;;;;;10.60;3.60;;;;;;;;;;6306007;22;20170;-79
2023/12/11 11:58:46;;;;;;;11.57;3.50;;;;;;;;;;6305403;22;20613;-79
2023/12/11 12:01:13;;;;;;;11.13;3.45;;;;;;;;;;6305410;22;20224;-79
2023/12/11 12:03:41;;;;;;;9.98;3.30;;;;;;;;;;6305905;22;20541;-78
2023/12/11 12:06:08;;;;;;;13.03;4.43;;;;;;;;;;6305867;22;20170;-79
2023/12/11 12:08:37;;;;;;;8.48;3.90;;;;;;;;;;6305301;22;20578;-79
2023/12/11 12:11:05;;;;;;;12.57;3.60;;;;;;;;;;6305319;22;20508;-79
2023/12/11 12:13:34;;;;;;;10.90;5.20;;;;;;;;;;6305590;22;20240;-78
2023/12/11 12:16:02;;;;;;;12.10;4.93;;;;;;;;;;6304329;22;20165;-79
2023/12/11 12:18:29;;;;;;;11.83;5.77;;;;;;;;;;6305932;22;20714;-79
2023/12/11 12:21:03;;;;;;;10.77;5.65;;;;;;;;;;6305516;22;20543;-79
2023/12/11 12:23:30;;;;;;;10.48;4.53;;;;;;;;;;6305727;22;20170;-77
2023/12/11 12:25:59;;;;;;;8.23;2.38;;;;;;;;;;6304938;22;20177;-78
2023/12/11 12:28:27;;;;;;;8.43;2.22;;;;;;;;;;6305323;22;20204;-79
2023/12/11 12:30:55;;;;;;;8.43;2.10;;;;;;;;;;6305469;22;20181;-79
2023/12/11 12:33:22;;;;;;;6.37;2.17;;;;;;;;;;6305727;22;20266;-78
2023/12/11 12:35:50;;;;;;;8.87;3.10;;;;;;;;;;6306143;22;20253;-78
2023/12/11 12:38:17;;;;;;;8.50;2.40;;;;;;;;;;6305465;22;20217;-79
2023/12/11 12:40:44;;;;;;;5.13;2.50;;;;;;;;;;6304832;22;21007;-78
2023/12/11 12:43:13;;;;;;;5.82;2.55;;;;;;;;;;6305120;22;20170;-78
2023/12/11 12:45:41;;;;;;;7.40;2.70;;;;;;;;;;6304998;22;20170;-79
2023/12/11 12:48:09;;;;;;;9.97;4.00;;;;;;;;;;6305856;22;20166;-79
2023/12/11 12:50:36;;;;;;;9.27;4.67;;;;;;;;;;6305472;22;20169;-81
2023/12/11 12:53:05;;;;;;;10.63;3.75;;;;;;;;;;6305156;22;20200;-79
2023/12/11 12:55:32;;;;;;;5.38;2.38;;;;;;;;;;6305167;22;20166;-79
2023/12/11 12:57:59;;;;;;;8.90;4.30;;;;;;;;;;6305006;22;20663;-79
2023/12/11 13:00:28;;;;;;;7.53;3.05;;;;;;;;;;6305187;22;20225;-79
2023/12/11 13:02:55;;;;;;;5.87;3.03;;;;;;;;;;6305093;22;20648;-80
2023/12/11 13:05:22;;;;;;;9.60;3.13;;;;;;;;;;6307179;22;20632;-79
2023/12/11 13:07:59;;;;;;;8.95;3.38;;;;;;;;;;6306694;22;20256;-80
2023/12/11 13:10:26;;;;;;;8.00;3.28;;;;;;;;;;6307008;22;20219;-79
2023/12/11 13:12:54;;;;;;;9.07;3.50;;;;;;;;;;6306625;22;20200;-79
2023/12/11 13:15:21;;;;;;;5.22;2.20;;;;;;;;;;6307318;22;20177;-79
2023/12/11 13:17:54;;;;;;;10.57;3.90;;;;;;;;;;6307237;22;20192;-79
2023/12/11 13:20:22;;;;;;;7.38;3.28;;;;;;;;;;6307065;22;20173;-82
2023/12/11 13:22:49;;;;;;;5.53;3.15;;;;;;;;;;6307223;22;20177;-79
2023/12/11 13:25:16;;;;;;;4.07;2.10;;;;;;;;;;6306201;22;20583;-79
2023/12/11 13:27:46;;;;;;;5.47;2.17;;;;;;;;;;6306803;22;20190;-79
2023/12/11 13:30:14;;;;;;;5.78;1.85;;;;;;;;;;6307320;22;20169;-78
2023/12/11 13:32:42;;;;;;;7.53;1.85;;;;;;;;;;6306989;22;20166;-79
2023/12/11 13:35:10;;;;;;;3.42;1.80;;;;;;;;;;6306916;22;20227;-78
2023/12/11 13:37:38;;;;;;;5.07;1.77;;;;;;;;;;6306802;22;20201;-79
2023/12/11 13:40:06;;;;;;;3.92;1.80;;;;;;;;;;6306667;22;20172;-79
2023/12/11 13:42:33;;;;;;;5.13;2.00;;;;;;;;;;6306786;22;20176;-79
2023/12/11 13:45:01;;;;;;;6.07;2.58;;;;;;;;;;6306572;22;20265;-78
2023/12/11 13:47:29;;;;;;;7.67;2.30;;;;;;;;;;6307190;22;20170;-79
2023/12/11 13:49:56;;;;;;;4.38;2.20;;;;;;;;;;6306963;22;20193;-79
2023/12/11 13:52:25;;;;;;;6.15;2.55;;;;;;;;;;6306687;22;20204;-79
2023/12/11 13:54:52;;;;;;;2.67;1.50;;;;;;;;;;6306330;22;20177;-79
2023/12/11 13:57:20;;;;;;;2.92;1.63;;;;;;;;;;6306446;22;20636;-79
2023/12/11 13:59:49;;;;;;;5.53;1.60;;;;;;;;;;6305745;22;20706;-78
2023/12/11 14:02:16;;;;;;;5.03;2.78;;;;;;;;;;6306682;22;20491;-79
2023/12/11 14:04:46;;;;;;;5.65;2.50;;;;;;;;;;6306111;22;20244;-79
2023/12/11 14:07:13;;;;;;;5.40;1.90;;;;;;;;;;6306191;22;20181;-79
2023/12/11 14:09:42;;;;;;;5.57;1.70;;;;;;;;;;6306246;22;20666;-78
2023/12/11 14:12:09;;;;;;;6.30;1.88;;;;;;;;;;6306697;22;20198;-78
2023/12/11 14:14:37;;;;;;;4.88;1.98;;;;;;;;;;6306511;22;20170;-78
2023/12/11 14:17:05;;;;;;;6.43;1.95;;;;;;;;;;6306119;22;20620;-78
2023/12/11 14:19:33;;;;;;;4.97;1.88;;;;;;;;;;6306713;22;20251;-78
2023/12/11 14:22:00;;;;;;;6.47;2.58;;;;;;;;;;6305917;22;20257;-79
2023/12/11 14:24:27;;;;;;;6.38;1.83;;;;;;;;;;6305957;22;20193;-79
2023/12/11 14:26:56;;;;;;;6.25;2.03;;;;;;;;;;6306114;22;20262;-80
2023/12/11 14:29:23;;;;;;;7.80;3.30;;;;;;;;;;6306368;22;20170;-79
2023/12/11 14:31:50;;;;;;;7.30;2.67;;;;;;;;;;6305938;22;20245;-79
2023/12/11 14:34:17;;;;;;;5.43;3.08;;;;;;;;;;6305845;22;20249;-79